createdAt,value
2019-01-03T00:00:01.785Z,43.62
2019-01-03T00:01:00.252Z,44.02
2019-01-03T00:02:00.241Z,44.23
2019-01-03T00:03:00.268Z,43.93
2019-01-03T00:04:00.211Z,43.93
2019-01-03T00:05:00.287Z,43.73
2019-01-03T00:06:00.192Z,43.82
2019-01-03T00:07:00.433Z,43.32
2019-01-03T00:08:00.232Z,43.22
2019-01-03T00:09:00.916Z,43.42
2019-01-03T00:10:00.275Z,43.42
2019-01-03T00:11:00.314Z,43.02
2019-01-03T00:12:00.131Z,43.62
2019-01-03T00:13:00.233Z,44.02
2019-01-03T00:14:00.129Z,43.52
2019-01-03T00:15:00.195Z,43.32
2019-01-03T00:16:00.082Z,43.22
2019-01-03T00:17:00.073Z,43.42
2019-01-03T00:18:00.098Z,43.42
2019-01-03T00:19:00.365Z,43.42
2019-01-03T00:20:00.223Z,43.42
2019-01-03T00:21:00.032Z,42.82
2019-01-03T00:22:00.038Z,43.22
2019-01-03T00:23:00.007Z,42.92
2019-01-03T00:24:00.076Z,43.02
2019-01-03T00:24:59.998Z,43.42
2019-01-03T00:25:59.975Z,43.42
2019-01-03T00:26:59.976Z,42.72
2019-01-03T00:27:59.950Z,43.02
2019-01-03T00:28:59.954Z,42.92
2019-01-03T00:29:59.938Z,43.24
2019-01-03T00:30:59.923Z,43.22
2019-01-03T00:31:59.913Z,42.92
2019-01-03T00:32:59.896Z,43.02
2019-01-03T00:33:59.956Z,43.24
2019-01-03T00:34:59.873Z,42.64
2019-01-03T00:35:59.861Z,42.64
2019-01-03T00:36:59.912Z,42.11
2019-01-03T00:37:59.842Z,42.61
2019-01-03T00:38:59.853Z,41.71
2019-01-03T00:39:59.817Z,42.32
2019-01-03T00:40:59.836Z,41.81
2019-01-03T00:41:59.802Z,42.03
2019-01-03T00:42:59.797Z,42.74
2019-01-03T00:43:59.823Z,42.44
2019-01-03T00:44:59.765Z,41.53
2019-01-03T00:45:59.751Z,42.24
2019-01-03T00:46:59.742Z,41.51
2019-01-03T00:47:59.729Z,42.54
2019-01-03T00:48:59.726Z,42.44
2019-01-03T00:49:59.726Z,42.33
2019-01-03T00:50:59.734Z,41.93
2019-01-03T00:51:59.691Z,41.93
2019-01-03T00:52:59.718Z,42.44
2019-01-03T00:53:59.669Z,41.93
2019-01-03T00:54:59.700Z,42.03
2019-01-03T00:55:59.654Z,41.73
2019-01-03T00:56:59.631Z,41.53
2019-01-03T00:57:59.619Z,41.83
2019-01-03T00:58:59.618Z,41.53
2019-01-03T00:59:59.615Z,41.83
2019-01-03T01:00:59.599Z,41.83
2019-01-03T01:01:59.580Z,41.73
2019-01-03T01:02:59.567Z,41.83
2019-01-03T01:03:59.553Z,41.73
2019-01-03T01:04:59.561Z,41.85
2019-01-03T01:05:59.561Z,41.83
2019-01-03T01:06:59.535Z,42.03
2019-01-03T01:07:59.534Z,42.24
2019-01-03T01:08:59.507Z,42.05
2019-01-03T01:09:59.507Z,41.83
2019-01-03T01:10:59.477Z,42.03
2019-01-03T01:11:59.464Z,41.02
2019-01-03T01:12:59.493Z,40.64
2019-01-03T01:13:59.467Z,40.82
2019-01-03T01:14:59.476Z,40.84
2019-01-03T01:15:59.432Z,41.25
2019-01-03T01:16:59.412Z,41.14
2019-01-03T01:17:59.403Z,42.05
2019-01-03T01:18:59.410Z,41.25
2019-01-03T01:19:59.379Z,40.84
2019-01-03T01:20:59.388Z,40.44
2019-01-03T01:21:59.358Z,40.54
2019-01-03T01:22:59.384Z,40.34
2019-01-03T01:23:59.341Z,40.54
2019-01-03T01:24:59.338Z,41.45
2019-01-03T01:25:59.346Z,40.74
2019-01-03T01:26:59.329Z,40.94
2019-01-03T01:27:59.289Z,40.64
2019-01-03T01:28:59.280Z,40.84
2019-01-03T01:29:59.279Z,41.14
2019-01-03T01:30:59.288Z,40.84
2019-01-03T01:31:59.255Z,40.25
2019-01-03T01:32:59.240Z,40.44
2019-01-03T01:33:59.223Z,40.23
2019-01-03T01:34:59.219Z,40.54
2019-01-03T01:35:59.320Z,40.76
2019-01-03T01:36:59.191Z,40.03
2019-01-03T01:37:59.194Z,40.54
2019-01-03T01:38:59.168Z,41.25
2019-01-03T01:39:59.156Z,40.03
2019-01-03T01:40:59.163Z,39.94
2019-01-03T01:41:59.154Z,40.96
2019-01-03T01:42:59.126Z,39.85
2019-01-03T01:43:59.132Z,39.95
2019-01-03T01:44:59.103Z,39.85
2019-01-03T01:45:59.111Z,39.83
2019-01-03T01:46:59.117Z,39.83
2019-01-03T01:47:59.113Z,39.85
2019-01-03T01:48:59.058Z,39.85
2019-01-03T01:49:59.057Z,39.85
2019-01-03T01:50:59.059Z,39.55
2019-01-03T01:51:59.031Z,39.95
2019-01-03T01:52:59.014Z,39.85
2019-01-03T01:53:59.005Z,40.76
2019-01-03T01:54:59.000Z,40.56
2019-01-03T01:55:59.042Z,40.16
2019-01-03T01:56:58.984Z,40.25
2019-01-03T01:57:58.966Z,40.25
2019-01-03T01:58:58.961Z,40.25
2019-01-03T01:59:58.939Z,40.76
2019-01-03T02:00:58.926Z,39.85
2019-01-03T02:01:58.976Z,40.05
2019-01-03T02:02:58.905Z,39.85
2019-01-03T02:03:58.935Z,40.86
2019-01-03T02:04:58.891Z,39.65
2019-01-03T02:05:58.873Z,40.05
2019-01-03T02:06:58.876Z,40.36
2019-01-03T02:07:58.858Z,40.16
2019-01-03T02:08:58.838Z,40.36
2019-01-03T02:09:58.833Z,39.85
2019-01-03T02:10:58.840Z,39.65
2019-01-03T02:11:58.832Z,41.36
2019-01-03T02:12:58.795Z,40.56
2019-01-03T02:13:58.798Z,40.05
2019-01-03T02:14:58.783Z,40.25
2019-01-03T02:15:58.762Z,42.47
2019-01-03T02:16:58.810Z,42.18
2019-01-03T02:17:58.739Z,42.07
2019-01-03T02:18:58.729Z,41.97
2019-01-03T02:19:58.726Z,41.77
2019-01-03T02:20:58.716Z,41.67
2019-01-03T02:21:58.714Z,41.99
2019-01-03T02:22:58.697Z,41.97
2019-01-03T02:23:58.679Z,41.87
2019-01-03T02:24:58.661Z,41.59
2019-01-03T02:25:58.661Z,41.99
2019-01-03T02:26:58.668Z,41.79
2019-01-03T02:27:58.635Z,41.49
2019-01-03T02:28:58.620Z,40.68
2019-01-03T02:29:58.613Z,42.19
2019-01-03T02:30:58.596Z,41.59
2019-01-03T02:31:58.619Z,41.18
2019-01-03T02:32:58.580Z,41.49
2019-01-03T02:33:58.573Z,41.18
2019-01-03T02:34:58.553Z,40.68
2019-01-03T02:35:58.542Z,40.78
2019-01-03T02:36:58.546Z,40.98
2019-01-03T02:37:58.534Z,40.68
2019-01-03T02:38:58.511Z,40.48
2019-01-03T02:39:58.511Z,40.30
2019-01-03T02:40:59.407Z,40.37
2019-01-03T02:41:58.493Z,40.09
2019-01-03T02:42:58.481Z,40.19
2019-01-03T02:43:58.484Z,40.80
2019-01-03T02:44:58.449Z,41.50
2019-01-03T02:45:58.432Z,41.30
2019-01-03T02:46:58.454Z,41.10
2019-01-03T02:47:58.411Z,41.61
2019-01-03T02:48:58.419Z,41.30
2019-01-03T02:49:58.411Z,41.61
2019-01-03T02:50:58.394Z,41.30
2019-01-03T02:51:58.366Z,41.30
2019-01-03T02:52:58.372Z,41.50
2019-01-03T02:53:58.348Z,41.42
2019-01-03T02:54:58.342Z,41.32
2019-01-03T02:55:58.333Z,41.83
2019-01-03T02:56:58.314Z,41.52
2019-01-03T02:57:58.325Z,42.03
2019-01-03T02:58:58.301Z,41.73
2019-01-03T02:59:58.279Z,41.63
2019-01-03T03:00:58.266Z,42.03
2019-01-03T03:01:58.269Z,42.03
2019-01-03T03:02:58.266Z,41.93
2019-01-03T03:03:58.233Z,42.03
2019-01-03T03:04:58.232Z,41.83
2019-01-03T03:05:58.216Z,42.03
2019-01-03T03:06:58.207Z,42.23
2019-01-03T03:07:58.224Z,41.83
2019-01-03T03:08:58.198Z,42.03
2019-01-03T03:09:58.166Z,42.03
2019-01-03T03:10:58.155Z,41.83
2019-01-03T03:11:58.157Z,42.03
2019-01-03T03:12:58.155Z,41.63
2019-01-03T03:13:58.134Z,42.03
2019-01-03T03:14:58.111Z,41.93
2019-01-03T03:15:58.100Z,42.03
2019-01-03T03:16:58.088Z,41.93
2019-01-03T03:17:58.097Z,41.64
2019-01-03T03:18:58.081Z,41.75
2019-01-03T03:19:58.079Z,41.83
2019-01-03T03:20:58.048Z,42.13
2019-01-03T03:21:58.032Z,41.95
2019-01-03T03:22:58.042Z,41.83
2019-01-03T03:23:58.018Z,41.75
2019-01-03T03:24:58.004Z,42.05
2019-01-03T03:25:58.013Z,41.44
2019-01-03T03:26:57.984Z,41.95
2019-01-03T03:27:57.981Z,42.15
2019-01-03T03:28:57.964Z,41.95
2019-01-03T03:29:57.949Z,41.85
2019-01-03T03:30:57.939Z,41.85
2019-01-03T03:31:57.944Z,41.35
2019-01-03T03:32:57.962Z,41.55
2019-01-03T03:33:57.899Z,41.55
2019-01-03T03:34:57.887Z,41.24
2019-01-03T03:35:57.883Z,41.55
2019-01-03T03:36:57.868Z,41.55
2019-01-03T03:37:57.885Z,41.44
2019-01-03T03:38:57.861Z,41.44
2019-01-03T03:39:57.844Z,41.35
2019-01-03T03:40:57.826Z,41.55
2019-01-03T03:41:57.809Z,41.44
2019-01-03T03:42:57.805Z,41.44
2019-01-03T03:43:57.811Z,41.66
2019-01-03T03:44:57.788Z,41.77
2019-01-03T03:45:57.767Z,41.56
2019-01-03T03:46:57.754Z,41.75
2019-01-03T03:47:57.747Z,41.97
2019-01-03T03:48:57.754Z,41.87
2019-01-03T03:49:57.724Z,41.87
2019-01-03T03:50:57.726Z,41.64
2019-01-03T03:51:57.705Z,42.17
2019-01-03T03:52:57.692Z,42.07
2019-01-03T03:53:57.705Z,41.97
2019-01-03T03:54:57.675Z,42.07
2019-01-03T03:55:57.658Z,42.07
2019-01-03T03:56:57.641Z,42.07
2019-01-03T03:57:57.648Z,41.87
2019-01-03T03:58:57.652Z,42.07
2019-01-03T03:59:57.616Z,42.17
2019-01-03T04:00:57.599Z,42.17
2019-01-03T04:01:57.589Z,42.27
2019-01-03T04:02:57.574Z,42.07
2019-01-03T04:03:57.613Z,42.07
2019-01-03T04:04:57.566Z,42.17
2019-01-03T04:05:57.548Z,42.27
2019-01-03T04:06:57.542Z,41.97
2019-01-03T04:07:57.525Z,42.07
2019-01-03T04:08:57.536Z,42.27
2019-01-03T04:09:57.512Z,42.07
2019-01-03T04:10:57.493Z,42.17
2019-01-03T04:11:57.487Z,42.37
2019-01-03T04:12:57.464Z,41.78
2019-01-03T04:13:57.527Z,42.09
2019-01-03T04:14:57.452Z,42.09
2019-01-03T04:15:57.455Z,41.56
2019-01-03T04:16:57.427Z,42.09
2019-01-03T04:17:57.419Z,42.09
2019-01-03T04:18:57.403Z,41.89
2019-01-03T04:19:57.421Z,41.89
2019-01-03T04:20:57.388Z,42.19
2019-01-03T04:21:57.375Z,42.19
2019-01-03T04:22:57.362Z,41.69
2019-01-03T04:23:57.339Z,41.89
2019-01-03T04:24:57.353Z,41.89
2019-01-03T04:25:57.339Z,41.99
2019-01-03T04:26:57.310Z,42.09
2019-01-03T04:27:57.312Z,41.69
2019-01-03T04:28:57.311Z,42.09
2019-01-03T04:29:57.309Z,41.49
2019-01-03T04:30:57.268Z,41.89
2019-01-03T04:31:57.256Z,42.09
2019-01-03T04:32:57.274Z,42.19
2019-01-03T04:33:57.242Z,42.19
2019-01-03T04:34:57.242Z,41.89
2019-01-03T04:35:57.217Z,42.09
2019-01-03T04:36:57.204Z,41.89
2019-01-03T04:37:57.183Z,41.89
2019-01-03T04:38:57.178Z,41.69
2019-01-03T04:39:57.191Z,41.89
2019-01-03T04:40:57.154Z,42.19
2019-01-03T04:41:57.138Z,42.01
2019-01-03T04:42:57.131Z,41.71
2019-01-03T04:43:57.122Z,41.78
2019-01-03T04:44:57.309Z,41.71
2019-01-03T04:45:57.112Z,41.50
2019-01-03T04:46:57.144Z,41.91
2019-01-03T04:47:57.081Z,41.91
2019-01-03T04:48:57.077Z,42.21
2019-01-03T04:49:57.064Z,42.01
2019-01-03T04:50:57.063Z,41.71
2019-01-03T04:51:57.086Z,42.01
2019-01-03T04:52:57.022Z,41.91
2019-01-03T04:53:57.030Z,42.01
2019-01-03T04:54:56.997Z,41.91
2019-01-03T04:55:57.010Z,42.11
2019-01-03T04:56:56.972Z,42.61
2019-01-03T04:57:56.975Z,42.11
2019-01-03T04:58:56.962Z,41.71
2019-01-03T04:59:56.940Z,41.71
2019-01-03T05:00:56.950Z,41.71
2019-01-03T05:01:56.924Z,42.21
2019-01-03T05:02:56.911Z,42.01
2019-01-03T05:03:56.912Z,42.11
2019-01-03T05:04:56.929Z,42.41
2019-01-03T05:05:56.899Z,42.11
2019-01-03T05:06:56.878Z,42.11
2019-01-03T05:07:57.554Z,41.91
2019-01-03T05:08:56.851Z,41.80
2019-01-03T05:09:56.832Z,41.71
2019-01-03T05:10:56.825Z,42.11
2019-01-03T05:11:56.836Z,41.91
2019-01-03T05:12:56.813Z,41.91
2019-01-03T05:13:56.792Z,41.71
2019-01-03T05:14:56.783Z,41.52
2019-01-03T05:15:56.798Z,41.30
2019-01-03T05:16:56.781Z,41.93
2019-01-03T05:17:56.814Z,41.40
2019-01-03T05:18:56.740Z,41.72
2019-01-03T05:19:56.713Z,41.83
2019-01-03T05:20:56.704Z,41.63
2019-01-03T05:21:56.710Z,41.42
2019-01-03T05:22:56.713Z,41.83
2019-01-03T05:23:57.521Z,41.63
2019-01-03T05:24:56.670Z,41.52
2019-01-03T05:25:56.653Z,41.52
2019-01-03T05:26:56.693Z,41.42
2019-01-03T05:27:56.631Z,41.93
2019-01-03T05:28:56.675Z,42.13
2019-01-03T05:29:56.603Z,41.52
2019-01-03T05:30:56.593Z,41.72
2019-01-03T05:31:56.653Z,41.32
2019-01-03T05:32:56.568Z,41.52
2019-01-03T05:33:56.560Z,41.42
2019-01-03T05:34:56.566Z,41.93
2019-01-03T05:35:56.554Z,41.42
2019-01-03T05:36:56.593Z,41.72
2019-01-03T05:37:56.530Z,41.42
2019-01-03T05:38:56.531Z,41.63
2019-01-03T05:39:56.500Z,41.93
2019-01-03T05:40:56.480Z,41.42
2019-01-03T05:41:56.489Z,41.52
2019-01-03T05:42:56.465Z,41.52
2019-01-03T05:43:56.473Z,41.63
2019-01-03T05:44:56.435Z,41.52
2019-01-03T05:45:56.421Z,41.93
2019-01-03T05:46:56.484Z,41.93
2019-01-03T05:47:56.399Z,41.72
2019-01-03T05:48:56.416Z,42.13
2019-01-03T05:49:56.408Z,42.03
2019-01-03T05:50:56.367Z,42.23
2019-01-03T05:51:56.355Z,42.03
2019-01-03T05:52:56.365Z,42.13
2019-01-03T05:53:56.337Z,42.13
2019-01-03T05:54:56.342Z,41.95
2019-01-03T05:55:56.315Z,41.42
2019-01-03T05:56:56.310Z,41.72
2019-01-03T05:57:56.309Z,41.64
2019-01-03T05:58:56.277Z,41.74
2019-01-03T05:59:56.275Z,41.42
2019-01-03T06:00:56.255Z,41.34
2019-01-03T06:01:56.244Z,41.22
2019-01-03T06:02:56.258Z,41.74
2019-01-03T06:03:56.231Z,40.94
2019-01-03T06:04:56.217Z,41.44
2019-01-03T06:05:56.202Z,41.54
2019-01-03T06:06:56.196Z,40.83
2019-01-03T06:07:56.194Z,41.54
2019-01-03T06:08:56.164Z,40.83
2019-01-03T06:09:56.165Z,41.14
2019-01-03T06:10:56.149Z,41.85
2019-01-03T06:11:56.136Z,41.64
2019-01-03T06:12:56.148Z,41.64
2019-01-03T06:13:56.111Z,41.44
2019-01-03T06:14:56.100Z,41.64
2019-01-03T06:15:56.105Z,41.34
2019-01-03T06:16:56.081Z,40.94
2019-01-03T06:17:56.079Z,40.73
2019-01-03T06:18:56.053Z,40.73
2019-01-03T06:19:56.040Z,40.83
2019-01-03T06:20:56.031Z,41.03
2019-01-03T06:21:56.035Z,40.94
2019-01-03T06:22:56.032Z,41.03
2019-01-03T06:23:55.996Z,41.36
2019-01-03T06:24:55.996Z,40.83
2019-01-03T06:25:55.974Z,41.03
2019-01-03T06:26:55.966Z,41.16
2019-01-03T06:27:55.976Z,41.26
2019-01-03T06:28:55.963Z,41.64
2019-01-03T06:29:55.933Z,41.54
2019-01-03T06:30:55.920Z,40.83
2019-01-03T06:31:55.908Z,41.05
2019-01-03T06:32:55.927Z,40.95
2019-01-03T06:33:55.887Z,40.75
2019-01-03T06:34:55.901Z,40.75
2019-01-03T06:35:55.867Z,40.94
2019-01-03T06:36:55.855Z,41.36
2019-01-03T06:37:55.842Z,41.16
2019-01-03T06:38:55.849Z,41.26
2019-01-03T06:39:55.825Z,41.16
2019-01-03T06:40:55.828Z,41.05
2019-01-03T06:41:55.803Z,40.65
2019-01-03T06:42:55.786Z,40.45
2019-01-03T06:43:55.805Z,40.04
2019-01-03T06:44:55.775Z,40.45
2019-01-03T06:45:55.754Z,40.24
2019-01-03T06:46:55.775Z,40.55
2019-01-03T06:47:55.739Z,40.45
2019-01-03T06:48:55.744Z,41.16
2019-01-03T06:49:55.718Z,41.05
2019-01-03T06:50:55.699Z,41.56
2019-01-03T06:51:55.707Z,42.07
2019-01-03T06:52:55.684Z,41.46
2019-01-03T06:53:55.705Z,41.97
2019-01-03T06:54:55.654Z,41.46
2019-01-03T06:55:55.644Z,40.95
2019-01-03T06:56:55.634Z,40.75
2019-01-03T06:57:55.635Z,40.85
2019-01-03T06:58:55.651Z,41.36
2019-01-03T06:59:55.600Z,41.05
2019-01-03T07:00:55.590Z,41.05
2019-01-03T07:01:55.579Z,40.55
2019-01-03T07:02:55.578Z,40.45
2019-01-03T07:03:55.853Z,40.95
2019-01-03T07:04:55.567Z,40.95
2019-01-03T07:05:55.536Z,41.05
2019-01-03T07:06:55.525Z,40.85
2019-01-03T07:07:55.518Z,40.45
2019-01-03T07:08:55.510Z,40.95
2019-01-03T07:09:55.517Z,41.05
2019-01-03T07:10:55.491Z,40.85
2019-01-03T07:11:55.469Z,40.85
2019-01-03T07:12:55.468Z,40.55
2019-01-03T07:13:55.463Z,40.45
2019-01-03T07:14:55.459Z,40.06
2019-01-03T07:15:55.427Z,40.24
2019-01-03T07:16:55.427Z,41.66
2019-01-03T07:17:55.403Z,41.46
2019-01-03T07:18:55.400Z,41.68
2019-01-03T07:19:55.406Z,41.07
2019-01-03T07:20:55.388Z,41.68
2019-01-03T07:21:55.362Z,40.97
2019-01-03T07:22:55.358Z,40.67
2019-01-03T07:23:55.338Z,40.55
2019-01-03T07:24:55.359Z,40.24
2019-01-03T07:25:55.317Z,40.36
2019-01-03T07:26:55.317Z,40.24
2019-01-03T07:27:55.296Z,40.77
2019-01-03T07:28:55.294Z,40.26
2019-01-03T07:29:55.298Z,40.77
2019-01-03T07:30:55.264Z,41.38
2019-01-03T07:31:55.252Z,41.07
2019-01-03T07:32:55.253Z,40.56
2019-01-03T07:33:55.230Z,40.77
2019-01-03T07:34:55.235Z,40.45
2019-01-03T07:35:55.232Z,40.26
2019-01-03T07:36:55.201Z,40.87
2019-01-03T07:37:55.191Z,40.67
2019-01-03T07:38:55.187Z,40.34
2019-01-03T07:39:55.169Z,40.56
2019-01-03T07:40:55.198Z,40.77
2019-01-03T07:41:55.141Z,40.47
2019-01-03T07:42:55.137Z,40.36
2019-01-03T07:43:55.128Z,40.56
2019-01-03T07:44:55.110Z,40.47
2019-01-03T07:45:55.118Z,40.36
2019-01-03T07:46:55.106Z,40.36
2019-01-03T07:47:55.079Z,40.26
2019-01-03T07:48:55.068Z,40.36
2019-01-03T07:49:55.055Z,40.26
2019-01-03T07:50:55.074Z,40.16
2019-01-03T07:51:55.041Z,39.86
2019-01-03T07:52:55.038Z,40.24
2019-01-03T07:53:55.021Z,41.48
2019-01-03T07:54:54.999Z,41.07
2019-01-03T07:55:55.004Z,41.38
2019-01-03T07:56:55.001Z,41.07
2019-01-03T07:57:54.974Z,39.86
2019-01-03T07:58:54.980Z,40.56
2019-01-03T07:59:54.947Z,41.07
2019-01-03T08:00:54.954Z,40.47
2019-01-03T08:01:54.941Z,40.47
2019-01-03T08:02:54.914Z,40.26
2019-01-03T08:03:54.917Z,40.97
2019-01-03T08:04:54.909Z,40.47
2019-01-03T08:05:54.907Z,40.97
2019-01-03T08:06:54.875Z,43.00
2019-01-03T08:07:54.880Z,47.06
2019-01-03T08:08:55.016Z,50.20
2019-01-03T08:09:54.837Z,47.06
2019-01-03T08:10:54.869Z,45.13
2019-01-03T08:11:54.820Z,44.62
2019-01-03T08:12:54.810Z,44.12
2019-01-03T08:13:54.795Z,43.30
2019-01-03T08:14:54.788Z,42.90
2019-01-03T08:15:54.786Z,43.71
2019-01-03T08:16:54.772Z,43.41
2019-01-03T08:17:54.764Z,45.74
2019-01-03T08:18:54.749Z,48.88
2019-01-03T08:19:54.729Z,49.49
2019-01-03T08:20:54.765Z,47.36
2019-01-03T08:21:54.713Z,45.84
2019-01-03T08:22:54.711Z,45.94
2019-01-03T08:23:54.689Z,44.82
2019-01-03T08:24:54.688Z,44.42
2019-01-03T08:25:54.664Z,46.14
2019-01-03T08:26:54.669Z,49.49
2019-01-03T08:27:54.642Z,51.21
2019-01-03T08:28:54.642Z,53.83
2019-01-03T08:29:54.620Z,56.97
2019-01-03T08:30:54.625Z,58.44
2019-01-03T08:31:54.625Z,59.14
2019-01-03T08:32:54.592Z,58.61
2019-01-03T08:33:54.585Z,57.37
2019-01-03T08:34:54.569Z,55.80
2019-01-03T08:35:54.560Z,54.69
2019-01-03T08:36:54.569Z,54.69
2019-01-03T08:37:54.529Z,53.96
2019-01-03T08:38:54.518Z,52.54
2019-01-03T08:39:54.515Z,52.61
2019-01-03T08:40:54.513Z,52.11
2019-01-03T08:41:54.506Z,51.40
2019-01-03T08:42:54.502Z,52.21
2019-01-03T08:43:54.469Z,52.09
2019-01-03T08:44:54.458Z,51.98
2019-01-03T08:45:54.443Z,51.68
2019-01-03T08:46:54.456Z,51.35
2019-01-03T08:47:54.432Z,51.25
2019-01-03T08:49:00.368Z,50.85
2019-01-03T08:49:55.399Z,50.75
2019-01-03T08:50:54.387Z,50.85
2019-01-03T08:51:54.396Z,50.75
2019-01-03T08:52:54.374Z,51.03
2019-01-03T08:53:54.363Z,50.93
2019-01-03T08:54:54.339Z,50.93
2019-01-03T08:55:54.329Z,50.73
2019-01-03T08:56:54.343Z,50.10
2019-01-03T08:57:54.309Z,50.20
2019-01-03T08:58:54.307Z,50.20
2019-01-03T08:59:54.298Z,50.90
2019-01-03T09:00:54.279Z,49.99
2019-01-03T09:01:54.297Z,49.49
2019-01-03T09:02:54.252Z,48.89
2019-01-03T09:03:54.247Z,48.69
2019-01-03T09:04:54.244Z,48.28
2019-01-03T09:05:54.218Z,47.88
2019-01-03T09:06:54.210Z,47.58
2019-01-03T09:07:54.215Z,47.67
2019-01-03T09:08:54.185Z,47.67
2019-01-03T09:09:54.194Z,48.08
2019-01-03T09:10:54.179Z,47.58
2019-01-03T09:11:54.153Z,47.58
2019-01-03T09:12:54.156Z,47.38
2019-01-03T09:13:54.131Z,47.27
2019-01-03T09:14:54.118Z,47.27
2019-01-03T09:15:54.108Z,46.87
2019-01-03T09:16:54.113Z,46.77
2019-01-03T09:17:54.117Z,47.07
2019-01-03T09:18:54.078Z,46.77
2019-01-03T09:19:54.063Z,46.47
2019-01-03T09:20:54.056Z,46.87
2019-01-03T09:21:54.049Z,46.47
2019-01-03T09:22:54.055Z,46.17
2019-01-03T09:23:54.022Z,45.97
2019-01-03T09:24:54.020Z,45.84
2019-01-03T09:25:53.998Z,46.04
2019-01-03T09:26:53.999Z,45.84
2019-01-03T09:27:54.013Z,46.04
2019-01-03T09:28:53.979Z,45.64
2019-01-03T09:29:53.971Z,45.34
2019-01-03T09:30:53.942Z,45.54
2019-01-03T09:31:53.933Z,46.04
2019-01-03T09:32:53.921Z,45.74
2019-01-03T09:33:53.926Z,45.34
2019-01-03T09:34:53.903Z,45.34
2019-01-03T09:35:53.951Z,45.44
2019-01-03T09:36:53.883Z,45.54
2019-01-03T09:37:53.865Z,45.64
2019-01-03T09:38:53.936Z,45.32
2019-01-03T09:39:53.866Z,45.52
2019-01-03T09:40:53.832Z,45.21
2019-01-03T09:41:53.827Z,45.01
2019-01-03T09:42:53.813Z,44.61
2019-01-03T09:43:53.826Z,44.92
2019-01-03T09:44:53.789Z,44.71
2019-01-03T09:45:54.946Z,45.42
2019-01-03T09:46:53.767Z,44.71
2019-01-03T09:47:53.768Z,44.21
2019-01-03T09:48:53.768Z,45.01
2019-01-03T09:49:53.737Z,44.51
2019-01-03T09:50:53.727Z,44.51
2019-01-03T09:51:53.725Z,44.01
2019-01-03T09:52:53.709Z,45.52
2019-01-03T09:53:53.723Z,45.21
2019-01-03T09:54:53.693Z,44.01
2019-01-03T09:55:54.323Z,44.19
2019-01-03T09:56:53.666Z,43.99
2019-01-03T09:57:53.645Z,44.09
2019-01-03T09:58:54.455Z,44.39
2019-01-03T09:59:53.629Z,44.29
2019-01-03T10:00:53.658Z,44.41
2019-01-03T10:01:53.616Z,44.39
2019-01-03T10:02:53.593Z,44.49
2019-01-03T10:03:54.401Z,44.09
2019-01-03T10:04:53.577Z,44.39
2019-01-03T10:05:53.581Z,44.09
2019-01-03T10:06:53.559Z,44.09
2019-01-03T10:07:53.540Z,44.59
2019-01-03T10:08:53.527Z,44.37
2019-01-03T10:09:55.964Z,44.59
2019-01-03T10:10:53.512Z,44.39
2019-01-03T10:11:53.510Z,44.47
2019-01-03T10:12:53.493Z,44.37
2019-01-03T10:13:53.473Z,44.27
2019-01-03T10:14:53.481Z,43.96
2019-01-03T10:15:53.451Z,44.27
2019-01-03T10:16:53.441Z,44.17
2019-01-03T10:17:53.431Z,44.27
2019-01-03T10:18:53.430Z,44.07
2019-01-03T10:19:53.426Z,44.17
2019-01-03T10:20:53.405Z,43.96
2019-01-03T10:21:53.387Z,43.87
2019-01-03T10:22:53.376Z,43.87
2019-01-03T10:23:53.716Z,43.87
2019-01-03T10:24:53.387Z,44.27
2019-01-03T10:25:53.398Z,43.84
2019-01-03T10:26:54.215Z,44.07
2019-01-03T10:27:53.716Z,44.27
2019-01-03T10:28:53.315Z,44.07
2019-01-03T10:29:53.326Z,44.24
2019-01-03T10:30:53.296Z,43.74
2019-01-03T10:31:53.295Z,43.74
2019-01-03T10:32:53.267Z,43.95
2019-01-03T10:33:53.268Z,44.04
2019-01-03T10:34:53.301Z,43.84
2019-01-03T10:35:53.259Z,43.74
2019-01-03T10:36:53.241Z,43.84
2019-01-03T10:37:53.233Z,44.04
2019-01-03T10:38:53.204Z,43.84
2019-01-03T10:39:53.212Z,43.74
2019-01-03T10:40:53.251Z,44.24
2019-01-03T10:41:53.186Z,44.04
2019-01-03T10:42:53.165Z,44.24
2019-01-03T10:43:53.172Z,45.03
2019-01-03T10:44:53.141Z,46.84
2019-01-03T10:45:53.142Z,47.54
2019-01-03T10:46:54.058Z,48.65
2019-01-03T10:47:53.101Z,49.02
2019-01-03T10:48:53.091Z,48.93
2019-01-03T10:49:53.085Z,49.02
2019-01-03T10:50:53.103Z,48.83
2019-01-03T10:51:53.060Z,48.40
2019-01-03T10:52:53.054Z,48.50
2019-01-03T10:53:53.060Z,47.50
2019-01-03T10:54:53.045Z,47.58
2019-01-03T10:55:53.033Z,47.67
2019-01-03T10:56:55.547Z,47.07
2019-01-03T10:57:52.989Z,47.07
2019-01-03T10:58:53.006Z,46.37
2019-01-03T10:59:52.968Z,46.95
2019-01-03T11:00:52.985Z,46.85
2019-01-03T11:01:53.061Z,46.45
2019-01-03T11:02:52.934Z,46.25
2019-01-03T11:03:52.995Z,45.25
2019-01-03T11:04:52.934Z,45.72
2019-01-03T11:05:52.903Z,45.25
2019-01-03T11:06:52.915Z,45.75
2019-01-03T11:07:52.887Z,45.54
2019-01-03T11:08:52.876Z,45.75
2019-01-03T11:09:52.989Z,46.15
2019-01-03T11:10:52.851Z,45.32
2019-01-03T11:11:52.854Z,45.22
2019-01-03T11:12:52.853Z,45.22
2019-01-03T11:13:53.097Z,45.32
2019-01-03T11:14:52.814Z,45.34
2019-01-03T11:15:52.805Z,45.92
2019-01-03T11:16:52.797Z,45.53
2019-01-03T11:17:52.778Z,45.62
2019-01-03T11:18:52.771Z,45.92
2019-01-03T11:19:52.754Z,46.62
2019-01-03T11:20:52.743Z,46.73
2019-01-03T11:21:52.746Z,46.62
2019-01-03T11:22:52.739Z,46.53
2019-01-03T11:23:52.704Z,46.42
2019-01-03T11:24:52.694Z,47.03
2019-01-03T11:25:52.697Z,46.93
2019-01-03T11:26:52.690Z,46.83
2019-01-03T11:27:52.668Z,46.83
2019-01-03T11:28:52.650Z,47.33
2019-01-03T11:29:52.647Z,46.81
2019-01-03T11:30:52.629Z,47.33
2019-01-03T11:31:52.657Z,47.23
2019-01-03T11:32:52.823Z,46.93
2019-01-03T11:33:52.595Z,46.83
2019-01-03T11:34:52.583Z,46.73
2019-01-03T11:35:52.654Z,47.63
2019-01-03T11:36:52.766Z,47.43
2019-01-03T11:37:52.557Z,47.53
2019-01-03T11:38:52.556Z,49.01
2019-01-03T11:39:52.532Z,48.53
2019-01-03T11:40:52.520Z,48.71
2019-01-03T11:41:52.913Z,48.51
2019-01-03T11:42:52.507Z,48.51
2019-01-03T11:43:52.488Z,48.21
2019-01-03T11:44:54.248Z,47.41
2019-01-03T11:45:53.713Z,47.41
2019-01-03T11:46:53.935Z,47.00
2019-01-03T11:47:52.450Z,47.00
2019-01-03T11:48:52.436Z,46.41
2019-01-03T11:49:52.422Z,46.50
2019-01-03T11:50:52.677Z,46.50
2019-01-03T11:51:52.574Z,46.70
2019-01-03T11:52:53.795Z,46.50
2019-01-03T11:53:52.458Z,46.70
2019-01-03T11:54:52.368Z,46.70
2019-01-03T11:55:52.356Z,46.70
2019-01-03T11:56:52.359Z,46.11
2019-01-03T11:57:52.360Z,46.20
2019-01-03T11:58:52.334Z,46.61
2019-01-03T11:59:52.334Z,46.33
2019-01-03T12:00:52.310Z,46.03
2019-01-03T12:01:52.294Z,45.32
2019-01-03T12:02:52.301Z,45.42
2019-01-03T12:03:52.269Z,45.62
2019-01-03T12:04:52.267Z,45.72
2019-01-03T12:05:52.318Z,46.03
2019-01-03T12:06:52.246Z,45.42
2019-01-03T12:07:52.240Z,46.73
2019-01-03T12:08:52.215Z,46.73
2019-01-03T12:09:52.205Z,46.53
2019-01-03T12:10:52.198Z,46.73
2019-01-03T12:11:52.192Z,47.63
2019-01-03T12:12:52.195Z,47.85
2019-01-03T12:13:52.159Z,47.43
2019-01-03T12:14:52.201Z,47.43
2019-01-03T12:15:52.213Z,47.15
2019-01-03T12:16:52.142Z,48.23
2019-01-03T12:17:52.141Z,48.23
2019-01-03T12:18:52.117Z,48.93
2019-01-03T12:19:52.095Z,48.43
2019-01-03T12:20:52.192Z,48.46
2019-01-03T12:21:52.081Z,48.73
2019-01-03T12:22:52.084Z,48.46
2019-01-03T12:23:52.062Z,48.53
2019-01-03T12:24:52.044Z,48.35
2019-01-03T12:25:52.030Z,48.13
2019-01-03T12:26:52.033Z,48.66
2019-01-03T12:27:52.028Z,48.53
2019-01-03T12:28:52.009Z,48.73
2019-01-03T12:29:51.991Z,48.25
2019-01-03T12:30:51.973Z,48.43
2019-01-03T12:31:51.961Z,47.53
2019-01-03T12:32:51.974Z,48.43
2019-01-03T12:33:51.952Z,48.23
2019-01-03T12:34:51.939Z,47.43
2019-01-03T12:35:51.921Z,47.35
2019-01-03T12:36:51.906Z,47.45
2019-01-03T12:37:51.936Z,47.65
2019-01-03T12:38:51.886Z,47.55
2019-01-03T12:39:51.881Z,47.35
2019-01-03T12:40:51.871Z,47.85
2019-01-03T12:41:51.859Z,47.55
2019-01-03T12:42:51.841Z,47.96
2019-01-03T12:43:51.856Z,47.25
2019-01-03T12:44:51.826Z,46.87
2019-01-03T12:45:51.831Z,46.97
2019-01-03T12:46:51.803Z,47.05
2019-01-03T12:47:51.793Z,47.27
2019-01-03T12:48:51.798Z,46.97
2019-01-03T12:49:51.772Z,46.97
2019-01-03T12:50:51.759Z,47.07
2019-01-03T12:51:51.742Z,47.07